Time;durP1;ratioP1;P1;durP2;ratioP2;P2;SDS_P1;SDS_P2;PMS_P1;PMS_P2;Temp;Humidity;BMP_temperature;BMP_pressure;BME280_temperature;BME280_humidity;BME280_pressure;Samples;Min_cycle;Max_cycle;Signal;HPM_P1;HPM_P2
2022/12/31 00:03:52;;;;;;;0.70;0.70;;;;;;;;;;8209744;28;20034;-63
2022/12/31 00:07:52;;;;;;;0.60;0.60;;;;;;;;;;8207905;28;20023;-64
2022/12/31 00:11:53;;;;;;;0.50;0.50;;;;;;;;;;8205139;28;20038;-64
2022/12/31 00:15:53;;;;;;;0.75;0.60;;;;;;;;;;8208718;28;20053;-64
2022/12/31 00:19:53;;;;;;;0.70;0.70;;;;;;;;;;8207486;28;20026;-64
2022/12/31 00:23:53;;;;;;;2.05;0.73;;;;;;;;;;8205481;28;20046;-63
2022/12/31 00:27:54;;;;;;;0.70;0.70;;;;;;;;;;8200990;28;20034;-63
2022/12/31 00:31:54;;;;;;;0.80;0.80;;;;;;;;;;8207320;28;20046;-64
2022/12/31 00:36:02;;;;;;;1.73;0.73;;;;;;;;;;8206870;28;20038;-63
2022/12/31 00:40:03;;;;;;;0.73;0.73;;;;;;;;;;8209196;28;20022;-63
2022/12/31 00:44:03;;;;;;;0.88;0.88;;;;;;;;;;8207113;28;20030;-62
2022/12/31 00:48:04;;;;;;;0.90;0.90;;;;;;;;;;8206678;28;21011;-63
2022/12/31 00:52:04;;;;;;;4.37;0.87;;;;;;;;;;8206062;28;20590;-64
2022/12/31 00:56:06;;;;;;;1.05;1.00;;;;;;;;;;8205266;28;20297;-62
2022/12/31 01:00:07;;;;;;;2.45;1.08;;;;;;;;;;8207294;28;20198;-63
2022/12/31 01:04:12;;;;;;;1.40;0.90;;;;;;;;;;8203210;28;20487;-63
2022/12/31 01:08:12;;;;;;;1.33;0.70;;;;;;;;;;8200699;28;20041;-62
2022/12/31 01:12:12;;;;;;;2.50;0.90;;;;;;;;;;8199181;28;20026;-62
2022/12/31 01:16:13;;;;;;;1.45;1.00;;;;;;;;;;8201406;28;20034;-62
2022/12/31 01:20:13;;;;;;;1.40;1.00;;;;;;;;;;8203823;28;20022;-63
2022/12/31 01:24:13;;;;;;;2.03;1.05;;;;;;;;;;8202114;28;20481;-63
2022/12/31 01:28:14;;;;;;;2.80;0.90;;;;;;;;;;8202971;28;20031;-63
2022/12/31 01:32:14;;;;;;;3.65;1.30;;;;;;;;;;8202426;28;20037;-62
2022/12/31 01:36:15;;;;;;;2.42;1.10;;;;;;;;;;8205021;28;20140;-63
2022/12/31 01:40:16;;;;;;;1.75;1.10;;;;;;;;;;8204885;28;20057;-62
2022/12/31 01:44:22;;;;;;;2.13;1.38;;;;;;;;;;8204449;28;20030;-63
2022/12/31 01:48:24;;;;;;;2.53;1.33;;;;;;;;;;8203182;28;20902;-63
2022/12/31 01:52:30;;;;;;;1.30;1.20;;;;;;;;;;8203238;28;20064;-62
2022/12/31 01:56:30;;;;;;;2.03;1.30;;;;;;;;;;8206746;28;20058;-62
2022/12/31 02:00:31;;;;;;;3.53;1.30;;;;;;;;;;8208903;28;20038;-62
2022/12/31 02:04:31;;;;;;;1.30;1.20;;;;;;;;;;8210570;28;20031;-62
2022/12/31 02:08:32;;;;;;;2.08;1.20;;;;;;;;;;8207701;28;20026;-61
2022/12/31 02:12:32;;;;;;;2.10;1.30;;;;;;;;;;8209047;28;20036;-63
2022/12/31 02:16:32;;;;;;;3.42;1.60;;;;;;;;;;8211387;28;20399;-63
2022/12/31 02:20:41;;;;;;;2.85;1.45;;;;;;;;;;8214769;28;20056;-63
2022/12/31 02:24:41;;;;;;;2.60;1.20;;;;;;;;;;8209887;28;20076;-62
2022/12/31 02:29:07;;;;;;;3.45;1.23;;;;;;;;;;8211121;28;20034;-63
2022/12/31 02:33:07;;;;;;;1.98;1.38;;;;;;;;;;8208217;28;20374;-63
2022/12/31 02:37:11;;;;;;;3.88;1.10;;;;;;;;;;8208934;28;20019;-62
2022/12/31 02:41:48;;;;;;;1.67;1.30;;;;;;;;;;8209494;28;20089;-63
2022/12/31 02:45:35;;;;;;;1.25;1.15;;;;;;;;;;8205457;28;20058;-63
2022/12/31 02:49:35;;;;;;;2.67;1.00;;;;;;;;;;8208354;28;20027;-62
2022/12/31 02:53:35;;;;;;;1.20;1.10;;;;;;;;;;8207510;28;20045;-63
2022/12/31 02:57:41;;;;;;;1.73;1.30;;;;;;;;;;8208120;28;20125;-62
2022/12/31 03:06:02;;;;;;;1.63;1.20;;;;;;;;;;8209576;28;20045;-63
2022/12/31 03:10:02;;;;;;;4.35;1.40;;;;;;;;;;8207000;28;20038;-62
2022/12/31 03:14:03;;;;;;;3.78;1.27;;;;;;;;;;8211338;28;20109;-63
2022/12/31 03:18:04;;;;;;;2.35;1.30;;;;;;;;;;8206923;28;20122;-62
2022/12/31 03:26:24;;;;;;;3.38;1.38;;;;;;;;;;8208015;28;20041;-63
2022/12/31 03:30:24;;;;;;;4.32;1.60;;;;;;;;;;8205860;28;20038;-63
2022/12/31 03:34:25;;;;;;;1.60;1.30;;;;;;;;;;8207378;28;20243;-64
2022/12/31 03:38:25;;;;;;;1.42;1.30;;;;;;;;;;8204817;28;21039;-62
2022/12/31 03:42:25;;;;;;;2.13;1.20;;;;;;;;;;8205319;28;20813;-63
2022/12/31 03:46:25;;;;;;;1.52;1.30;;;;;;;;;;8207223;28;20451;-63
2022/12/31 03:50:25;;;;;;;6.75;1.63;;;;;;;;;;8207700;28;20783;-64
2022/12/31 03:54:26;;;;;;;1.75;1.20;;;;;;;;;;8205213;28;20027;-64
2022/12/31 03:58:26;;;;;;;1.70;1.20;;;;;;;;;;8207649;28;20136;-63
2022/12/31 04:02:26;;;;;;;1.33;1.08;;;;;;;;;;8204464;28;20349;-63
2022/12/31 04:06:26;;;;;;;2.75;1.20;;;;;;;;;;8207272;28;20217;-63
2022/12/31 04:10:26;;;;;;;2.47;1.30;;;;;;;;;;8205476;28;20062;-63
2022/12/31 04:14:27;;;;;;;5.25;1.15;;;;;;;;;;8202590;28;20027;-64
2022/12/31 04:18:27;;;;;;;1.73;1.20;;;;;;;;;;8204379;28;20042;-63
2022/12/31 04:22:27;;;;;;;1.92;1.10;;;;;;;;;;8206793;28;20813;-63
2022/12/31 04:26:27;;;;;;;2.75;1.05;;;;;;;;;;8203591;28;20041;-63
2022/12/31 04:30:27;;;;;;;3.33;1.10;;;;;;;;;;8204080;28;20075;-63
2022/12/31 04:34:28;;;;;;;2.20;1.20;;;;;;;;;;8207021;28;20034;-62
2022/12/31 04:38:28;;;;;;;1.35;1.00;;;;;;;;;;8204426;28;20058;-62
2022/12/31 04:42:28;;;;;;;2.53;1.10;;;;;;;;;;8204773;28;20765;-63
2022/12/31 04:46:30;;;;;;;3.83;1.20;;;;;;;;;;8204398;28;20510;-63
2022/12/31 04:50:30;;;;;;;1.60;1.10;;;;;;;;;;8204920;28;20080;-63
2022/12/31 04:54:30;;;;;;;3.35;1.45;;;;;;;;;;8205479;28;20388;-64
2022/12/31 04:58:30;;;;;;;1.27;1.02;;;;;;;;;;8206435;28;20026;-62
2022/12/31 05:02:30;;;;;;;4.13;1.10;;;;;;;;;;8207985;28;21132;-63
2022/12/31 05:06:31;;;;;;;1.40;1.10;;;;;;;;;;8206121;28;20833;-63
2022/12/31 05:10:31;;;;;;;1.48;1.00;;;;;;;;;;8205003;28;20034;-63
2022/12/31 05:14:31;;;;;;;1.30;1.10;;;;;;;;;;8209227;28;20019;-63
2022/12/31 05:18:31;;;;;;;1.88;1.02;;;;;;;;;;8205451;28;20061;-63
2022/12/31 05:22:32;;;;;;;1.05;0.95;;;;;;;;;;8207096;28;20503;-64
2022/12/31 05:26:32;;;;;;;3.45;1.05;;;;;;;;;;8208197;28;20030;-63
2022/12/31 05:30:32;;;;;;;2.55;1.00;;;;;;;;;;8206366;28;20050;-64
2022/12/31 05:34:32;;;;;;;2.88;1.05;;;;;;;;;;8213839;28;20133;-63
2022/12/31 05:38:32;;;;;;;0.95;0.95;;;;;;;;;;8212475;28;20054;-63
2022/12/31 05:42:33;;;;;;;1.40;1.00;;;;;;;;;;8210565;28;20069;-64
2022/12/31 05:46:33;;;;;;;2.40;1.07;;;;;;;;;;8212708;28;20046;-63
2022/12/31 05:50:33;;;;;;;2.72;1.00;;;;;;;;;;8213122;28;20062;-64
2022/12/31 05:54:33;;;;;;;5.10;1.05;;;;;;;;;;8213296;28;20101;-63
2022/12/31 05:58:33;;;;;;;1.00;0.90;;;;;;;;;;8213594;28;20852;-64
2022/12/31 06:02:34;;;;;;;1.85;0.90;;;;;;;;;;8210810;28;20685;-64
2022/12/31 06:06:34;;;;;;;1.98;1.33;;;;;;;;;;8210162;28;20022;-64
2022/12/31 06:10:34;;;;;;;0.80;0.80;;;;;;;;;;8210371;28;20046;-64
2022/12/31 06:14:34;;;;;;;2.35;1.20;;;;;;;;;;8209985;28;20026;-63
2022/12/31 06:18:34;;;;;;;1.45;1.10;;;;;;;;;;8209923;28;20042;-63
2022/12/31 06:22:35;;;;;;;2.37;1.00;;;;;;;;;;8208125;28;20057;-63
2022/12/31 06:26:35;;;;;;;2.80;1.00;;;;;;;;;;8212674;28;20325;-63
2022/12/31 06:30:35;;;;;;;2.13;1.08;;;;;;;;;;8210930;28;20037;-63
2022/12/31 06:34:35;;;;;;;2.13;0.93;;;;;;;;;;8209689;28;20030;-63
2022/12/31 06:38:37;;;;;;;1.80;1.00;;;;;;;;;;8207857;28;20332;-63
2022/12/31 06:42:37;;;;;;;1.73;1.13;;;;;;;;;;8209035;28;20023;-63
2022/12/31 06:46:37;;;;;;;4.10;1.30;;;;;;;;;;8209826;28;20066;-64
2022/12/31 06:50:38;;;;;;;4.32;1.10;;;;;;;;;;8212256;28;20803;-63
2022/12/31 06:54:38;;;;;;;1.17;1.08;;;;;;;;;;8209568;28;20534;-63
2022/12/31 06:58:39;;;;;;;3.47;1.20;;;;;;;;;;8207643;28;20162;-63
2022/12/31 07:02:52;;;;;;;3.45;1.40;;;;;;;;;;8207541;28;20766;-64
2022/12/31 07:06:52;;;;;;;4.03;1.40;;;;;;;;;;8211712;28;20673;-63
2022/12/31 07:11:06;;;;;;;2.53;1.58;;;;;;;;;;8206362;28;20040;-63
2022/12/31 07:15:11;;;;;;;3.15;1.50;;;;;;;;;;8205192;28;20061;-64
2022/12/31 07:19:30;;;;;;;1.92;1.20;;;;;;;;;;8208651;28;20611;-63
2022/12/31 07:23:31;;;;;;;3.83;1.27;;;;;;;;;;8207944;28;20031;-64
2022/12/31 07:27:43;;;;;;;1.30;1.20;;;;;;;;;;8207345;28;20050;-63
2022/12/31 07:31:53;;;;;;;3.90;1.73;;;;;;;;;;8209752;28;20045;-62
2022/12/31 07:36:04;;;;;;;1.83;1.33;;;;;;;;;;8210408;28;20022;-63
2022/12/31 07:40:11;;;;;;;2.05;1.48;;;;;;;;;;8207303;28;20382;-63
2022/12/31 07:44:23;;;;;;;1.42;1.30;;;;;;;;;;8207011;28;20186;-63
2022/12/31 07:48:25;;;;;;;3.97;1.27;;;;;;;;;;8209900;28;20042;-63
2022/12/31 07:52:25;;;;;;;2.60;1.60;;;;;;;;;;8204093;28;20034;-64
2022/12/31 07:56:25;;;;;;;2.40;1.42;;;;;;;;;;8205742;28;20070;-64
2022/12/31 08:00:27;;;;;;;1.60;1.50;;;;;;;;;;8206794;28;20729;-63
2022/12/31 08:04:30;;;;;;;2.42;1.58;;;;;;;;;;8205810;28;20065;-63
2022/12/31 08:08:43;;;;;;;2.63;1.75;;;;;;;;;;8204866;28;20046;-63
2022/12/31 08:12:44;;;;;;;1.83;1.40;;;;;;;;;;8204538;28;20919;-64
2022/12/31 08:16:44;;;;;;;1.42;1.25;;;;;;;;;;8201354;28;20031;-64
2022/12/31 08:21:00;;;;;;;4.43;1.77;;;;;;;;;;8202941;28;20117;-63
2022/12/31 08:25:03;;;;;;;2.00;1.42;;;;;;;;;;8202018;28;20023;-64
2022/12/31 08:29:03;;;;;;;3.47;1.52;;;;;;;;;;8202325;28;20027;-64
2022/12/31 08:33:03;;;;;;;2.17;1.48;;;;;;;;;;8201502;28;20351;-64
2022/12/31 08:37:09;;;;;;;2.13;1.23;;;;;;;;;;8204974;28;20022;-64
2022/12/31 08:41:10;;;;;;;2.75;1.25;;;;;;;;;;8202766;28;20018;-64
2022/12/31 08:45:16;;;;;;;2.42;1.30;;;;;;;;;;8200307;28;20030;-63
2022/12/31 08:49:16;;;;;;;1.98;1.50;;;;;;;;;;8199872;28;20030;-64
2022/12/31 08:53:16;;;;;;;3.90;1.70;;;;;;;;;;8201136;28;20030;-64
2022/12/31 08:57:32;;;;;;;1.42;1.30;;;;;;;;;;8200987;28;20026;-64
2022/12/31 09:01:44;;;;;;;3.55;1.45;;;;;;;;;;8201474;28;20403;-64
2022/12/31 09:05:45;;;;;;;3.38;1.35;;;;;;;;;;8200220;28;20028;-64
2022/12/31 09:09:56;;;;;;;2.72;1.60;;;;;;;;;;8200194;28;20528;-64
2022/12/31 09:14:15;;;;;;;4.90;1.50;;;;;;;;;;8201571;28;20129;-64
2022/12/31 09:18:16;;;;;;;3.00;1.58;;;;;;;;;;8202500;28;20121;-63
2022/12/31 09:22:16;;;;;;;2.75;1.50;;;;;;;;;;8200267;28;20033;-64
2022/12/31 09:26:28;;;;;;;2.77;1.37;;;;;;;;;;8201968;28;20072;-64
2022/12/31 09:30:32;;;;;;;2.47;1.60;;;;;;;;;;8200711;28;20289;-64
2022/12/31 09:34:36;;;;;;;1.85;1.23;;;;;;;;;;8200603;28;20600;-63
2022/12/31 09:38:58;;;;;;;4.70;1.40;;;;;;;;;;8200011;28;20065;-64
2022/12/31 09:43:06;;;;;;;2.83;1.30;;;;;;;;;;8200327;28;20594;-63
2022/12/31 09:47:09;;;;;;;3.47;1.38;;;;;;;;;;8199622;28;20053;-64
2022/12/31 09:51:39;;;;;;;4.55;1.30;;;;;;;;;;8198832;28;20081;-64
2022/12/31 09:55:47;;;;;;;2.40;1.50;;;;;;;;;;8190556;28;20042;-64
2022/12/31 10:00:01;;;;;;;3.30;1.50;;;;;;;;;;8199647;28;21231;-64
2022/12/31 10:04:06;;;;;;;2.28;1.30;;;;;;;;;;8199302;28;20030;-64
2022/12/31 10:08:07;;;;;;;2.65;1.50;;;;;;;;;;8202544;28;20035;-63
2022/12/31 10:12:19;;;;;;;3.47;1.30;;;;;;;;;;8203273;28;20053;-64
2022/12/31 10:16:25;;;;;;;1.90;1.40;;;;;;;;;;8196723;28;20137;-65
2022/12/31 10:20:32;;;;;;;2.60;1.40;;;;;;;;;;8205058;28;20376;-64
2022/12/31 10:24:32;;;;;;;5.13;1.42;;;;;;;;;;8206878;28;20121;-64
2022/12/31 10:28:43;;;;;;;2.22;1.42;;;;;;;;;;8203525;28;20964;-63
2022/12/31 10:32:50;;;;;;;3.00;1.40;;;;;;;;;;8204958;28;20051;-64
2022/12/31 10:36:56;;;;;;;3.05;1.33;;;;;;;;;;8204397;28;20069;-64
2022/12/31 10:41:11;;;;;;;3.40;1.50;;;;;;;;;;8205444;28;20506;-64
2022/12/31 10:45:30;;;;;;;2.05;1.25;;;;;;;;;;8203405;28;20486;-62
2022/12/31 10:49:49;;;;;;;3.15;1.27;;;;;;;;;;8204852;28;20684;-65
2022/12/31 10:53:58;;;;;;;4.88;1.60;;;;;;;;;;8203172;28;20038;-63
2022/12/31 10:58:09;;;;;;;2.67;1.30;;;;;;;;;;8206850;28;20827;-64
2022/12/31 11:02:37;;;;;;;2.33;1.30;;;;;;;;;;8202739;28;20121;-64
2022/12/31 11:06:55;;;;;;;3.38;1.33;;;;;;;;;;8205690;28;20026;-64
2022/12/31 11:11:11;;;;;;;2.33;1.40;;;;;;;;;;8214557;28;20034;-64
2022/12/31 11:15:14;;;;;;;1.40;1.20;;;;;;;;;;8202103;28;20837;-65
2022/12/31 11:19:23;;;;;;;1.90;1.30;;;;;;;;;;8218012;28;20034;-64
2022/12/31 11:23:34;;;;;;;1.67;1.17;;;;;;;;;;8203858;28;20157;-64
2022/12/31 11:27:42;;;;;;;2.20;1.27;;;;;;;;;;8202977;28;20042;-65
2022/12/31 11:31:57;;;;;;;2.47;1.38;;;;;;;;;;8202264;28;20154;-64
2022/12/31 11:36:18;;;;;;;1.90;1.35;;;;;;;;;;8203688;28;20033;-63
2022/12/31 11:40:23;;;;;;;2.03;1.35;;;;;;;;;;8204081;28;20357;-64
2022/12/31 11:44:41;;;;;;;2.75;1.30;;;;;;;;;;8200085;28;20117;-64
2022/12/31 11:48:48;;;;;;;3.85;1.50;;;;;;;;;;8202961;28;20085;-65
2022/12/31 11:52:57;;;;;;;3.08;1.30;;;;;;;;;;8202163;28;20045;-64
2022/12/31 11:57:09;;;;;;;1.52;1.10;;;;;;;;;;8203404;28;20065;-64
2022/12/31 12:01:12;;;;;;;4.93;1.63;;;;;;;;;;8203559;28;20039;-65
2022/12/31 12:05:14;;;;;;;1.63;1.10;;;;;;;;;;8202567;28;20069;-64
2022/12/31 12:09:19;;;;;;;2.70;1.10;;;;;;;;;;8202709;28;20054;-65
2022/12/31 12:13:22;;;;;;;4.22;1.35;;;;;;;;;;8204960;28;20030;-64
2022/12/31 12:17:31;;;;;;;2.47;1.10;;;;;;;;;;8201396;28;20644;-64
2022/12/31 12:21:32;;;;;;;2.40;1.20;;;;;;;;;;8199790;28;20411;-64
2022/12/31 12:25:40;;;;;;;5.28;1.58;;;;;;;;;;8202992;28;20030;-65
2022/12/31 12:29:40;;;;;;;1.65;1.10;;;;;;;;;;8198527;28;20081;-65
2022/12/31 12:33:42;;;;;;;5.95;1.40;;;;;;;;;;8197734;28;20862;-64
2022/12/31 12:37:42;;;;;;;1.17;1.08;;;;;;;;;;8198686;28;20022;-64
2022/12/31 12:41:42;;;;;;;2.25;1.13;;;;;;;;;;8200226;28;20359;-65
2022/12/31 12:45:44;;;;;;;2.28;1.10;;;;;;;;;;8200008;28;20066;-65
2022/12/31 12:49:46;;;;;;;2.25;1.23;;;;;;;;;;8195234;28;20083;-64
2022/12/31 12:53:56;;;;;;;1.88;1.23;;;;;;;;;;8203381;28;20525;-64
2022/12/31 12:57:56;;;;;;;1.63;1.10;;;;;;;;;;8201282;28;20018;-64
2022/12/31 13:01:56;;;;;;;2.25;1.10;;;;;;;;;;8200452;28;20384;-64
2022/12/31 13:06:02;;;;;;;3.42;1.10;;;;;;;;;;8199609;28;20022;-64
2022/12/31 13:10:21;;;;;;;1.92;1.00;;;;;;;;;;8200872;28;20038;-65
2022/12/31 13:14:36;;;;;;;2.25;1.10;;;;;;;;;;8202420;28;20027;-65
2022/12/31 13:18:46;;;;;;;1.85;0.90;;;;;;;;;;8202401;28;20562;-64
2022/12/31 13:22:50;;;;;;;3.30;1.00;;;;;;;;;;8203167;28;20026;-64
2022/12/31 13:27:08;;;;;;;2.05;1.10;;;;;;;;;;8201272;28;20835;-64
2022/12/31 13:31:11;;;;;;;3.25;1.08;;;;;;;;;;8199821;28;20125;-64
2022/12/31 13:35:31;;;;;;;1.70;1.05;;;;;;;;;;8203309;28;20027;-63
2022/12/31 13:39:36;;;;;;;1.40;1.00;;;;;;;;;;8199031;28;20434;-64
2022/12/31 13:43:44;;;;;;;5.18;0.90;;;;;;;;;;8200110;28;20050;-64
2022/12/31 13:47:50;;;;;;;2.08;1.10;;;;;;;;;;8197898;28;20308;-65
2022/12/31 13:51:57;;;;;;;3.75;1.13;;;;;;;;;;8198775;28;20027;-64
2022/12/31 13:56:00;;;;;;;3.40;1.25;;;;;;;;;;8206295;28;20113;-63
2022/12/31 14:00:03;;;;;;;1.00;0.90;;;;;;;;;;8204884;28;20029;-64
2022/12/31 14:04:08;;;;;;;2.57;1.00;;;;;;;;;;8210512;28;20043;-64
2022/12/31 14:08:09;;;;;;;0.90;0.80;;;;;;;;;;8204982;28;20031;-64
2022/12/31 14:12:16;;;;;;;2.80;0.90;;;;;;;;;;8200999;28;20041;-64
2022/12/31 14:16:35;;;;;;;3.80;1.15;;;;;;;;;;8212480;28;20376;-64
2022/12/31 14:20:46;;;;;;;1.88;0.77;;;;;;;;;;8205108;28;20033;-64
2022/12/31 14:24:49;;;;;;;3.60;1.20;;;;;;;;;;8204073;28;20156;-65
2022/12/31 14:28:59;;;;;;;1.20;1.10;;;;;;;;;;8205263;28;20949;-65
2022/12/31 14:33:05;;;;;;;2.08;1.50;;;;;;;;;;8203456;28;20039;-65
2022/12/31 14:37:10;;;;;;;1.80;0.82;;;;;;;;;;8203880;28;20109;-64
2022/12/31 14:41:30;;;;;;;3.00;1.02;;;;;;;;;;8201506;28;20060;-64
2022/12/31 14:45:33;;;;;;;1.35;0.90;;;;;;;;;;8205247;28;20032;-64
2022/12/31 14:49:55;;;;;;;1.30;1.00;;;;;;;;;;8203666;28;20039;-63
2022/12/31 14:53:57;;;;;;;1.02;0.93;;;;;;;;;;8204556;28;20031;-63
2022/12/31 14:57:58;;;;;;;3.10;1.00;;;;;;;;;;8203897;28;20090;-64
2022/12/31 15:01:58;;;;;;;0.90;0.90;;;;;;;;;;8203374;28;20077;-64
2022/12/31 15:06:27;;;;;;;1.95;1.00;;;;;;;;;;8203838;28;20125;-65
2022/12/31 15:10:42;;;;;;;3.78;1.38;;;;;;;;;;8204181;28;20101;-64
2022/12/31 15:14:50;;;;;;;1.20;0.80;;;;;;;;;;8201420;28;20138;-64
2022/12/31 15:19:05;;;;;;;1.40;1.30;;;;;;;;;;8197012;28;20041;-65
2022/12/31 15:23:29;;;;;;;1.48;1.38;;;;;;;;;;8197519;28;20023;-64
2022/12/31 15:27:33;;;;;;;0.82;0.80;;;;;;;;;;8208288;28;20026;-64
2022/12/31 15:31:34;;;;;;;2.72;0.80;;;;;;;;;;8199684;28;20046;-63
2022/12/31 15:35:45;;;;;;;4.65;0.90;;;;;;;;;;8200280;28;20153;-65
2022/12/31 15:39:45;;;;;;;0.93;0.73;;;;;;;;;;8199793;28;20062;-65
2022/12/31 15:43:49;;;;;;;1.42;1.00;;;;;;;;;;8199573;28;20714;-63
2022/12/31 15:47:53;;;;;;;2.05;0.90;;;;;;;;;;8199137;28;20038;-63
2022/12/31 15:52:07;;;;;;;2.20;0.95;;;;;;;;;;8201696;28;20548;-63
2022/12/31 15:56:12;;;;;;;2.13;0.90;;;;;;;;;;8183608;28;20037;-65
2022/12/31 16:00:20;;;;;;;1.83;0.85;;;;;;;;;;8206909;28;20027;-64
2022/12/31 16:04:25;;;;;;;4.53;1.63;;;;;;;;;;8208226;28;20023;-63
2022/12/31 16:08:27;;;;;;;1.67;0.95;;;;;;;;;;8200587;28;20311;-64
2022/12/31 16:12:30;;;;;;;2.78;1.00;;;;;;;;;;8200148;28;20068;-64
2022/12/31 16:16:31;;;;;;;1.42;0.85;;;;;;;;;;8201942;28;20043;-64
2022/12/31 16:20:32;;;;;;;2.25;1.13;;;;;;;;;;8200981;28;20105;-63
2022/12/31 16:24:33;;;;;;;2.35;0.90;;;;;;;;;;8206244;28;20384;-64
2022/12/31 16:28:33;;;;;;;1.57;1.00;;;;;;;;;;8201189;28;20125;-64
2022/12/31 16:32:35;;;;;;;1.13;0.93;;;;;;;;;;8199118;28;20573;-64
2022/12/31 16:36:35;;;;;;;2.95;0.90;;;;;;;;;;8201166;28;20374;-62
2022/12/31 16:40:36;;;;;;;2.53;0.70;;;;;;;;;;8200841;28;20435;-64
2022/12/31 16:44:36;;;;;;;4.13;0.80;;;;;;;;;;8200404;28;20045;-64
2022/12/31 16:48:37;;;;;;;1.07;0.93;;;;;;;;;;8198591;28;20354;-63
2022/12/31 16:52:38;;;;;;;5.55;0.98;;;;;;;;;;8196882;28;21090;-62
2022/12/31 16:56:40;;;;;;;1.95;1.20;;;;;;;;;;8197986;28;20089;-63
2022/12/31 17:00:41;;;;;;;1.63;0.90;;;;;;;;;;8199557;28;20436;-64
2022/12/31 17:04:45;;;;;;;3.00;1.40;;;;;;;;;;8197958;28;20146;-65
2022/12/31 17:08:59;;;;;;;1.70;0.98;;;;;;;;;;8200156;28;20034;-64
2022/12/31 17:13:02;;;;;;;2.08;0.90;;;;;;;;;;8197118;28;20566;-63
2022/12/31 17:17:02;;;;;;;4.90;1.15;;;;;;;;;;8197487;28;20669;-63
2022/12/31 17:21:05;;;;;;;3.53;1.05;;;;;;;;;;8198623;28;20023;-63
2022/12/31 17:25:17;;;;;;;5.72;1.25;;;;;;;;;;8206702;28;20724;-64
2022/12/31 17:29:19;;;;;;;3.50;0.90;;;;;;;;;;8208553;28;20046;-63
2022/12/31 17:33:19;;;;;;;2.55;1.15;;;;;;;;;;8208212;28;20138;-63
2022/12/31 17:37:24;;;;;;;1.40;1.00;;;;;;;;;;8210166;28;20063;-64
2022/12/31 17:41:25;;;;;;;3.08;0.90;;;;;;;;;;8206278;28;20221;-64
2022/12/31 17:45:26;;;;;;;4.28;1.00;;;;;;;;;;8207607;28;20470;-64
2022/12/31 17:49:28;;;;;;;1.25;0.88;;;;;;;;;;8207098;28;20331;-64
2022/12/31 17:53:28;;;;;;;2.78;0.90;;;;;;;;;;8207834;28;20036;-64
2022/12/31 17:57:28;;;;;;;3.15;1.25;;;;;;;;;;8210941;28;20094;-63
2022/12/31 18:01:29;;;;;;;2.63;1.10;;;;;;;;;;8209175;28;20031;-63
2022/12/31 18:05:29;;;;;;;4.47;0.90;;;;;;;;;;8209457;28;20811;-63
2022/12/31 18:09:29;;;;;;;3.60;1.00;;;;;;;;;;8208640;28;20030;-64
2022/12/31 18:13:29;;;;;;;3.75;1.00;;;;;;;;;;8206396;28;20054;-63
2022/12/31 18:17:32;;;;;;;4.00;1.00;;;;;;;;;;8208340;28;20999;-63
2022/12/31 18:21:33;;;;;;;2.67;1.08;;;;;;;;;;8206434;28;20056;-63
2022/12/31 18:25:33;;;;;;;1.35;1.05;;;;;;;;;;8207247;28;21093;-64
2022/12/31 18:29:33;;;;;;;2.47;1.10;;;;;;;;;;8209307;28;20030;-64
2022/12/31 18:33:33;;;;;;;1.63;1.02;;;;;;;;;;8207587;28;20061;-64
2022/12/31 18:37:34;;;;;;;1.45;0.98;;;;;;;;;;8206729;28;20144;-63
2022/12/31 18:41:39;;;;;;;1.48;1.20;;;;;;;;;;8205858;28;20102;-64
2022/12/31 18:45:39;;;;;;;1.02;0.93;;;;;;;;;;8207254;28;20034;-63
2022/12/31 18:49:40;;;;;;;1.35;1.00;;;;;;;;;;8208799;28;20066;-63
2022/12/31 18:53:40;;;;;;;1.77;1.15;;;;;;;;;;8207054;28;20855;-64
2022/12/31 18:57:40;;;;;;;1.80;0.98;;;;;;;;;;8207090;28;20034;-63
2022/12/31 19:01:40;;;;;;;2.80;1.00;;;;;;;;;;8206836;28;20637;-64
2022/12/31 19:05:41;;;;;;;2.33;0.90;;;;;;;;;;8205925;28;20081;-63
2022/12/31 19:09:41;;;;;;;1.40;0.90;;;;;;;;;;8204288;28;20022;-62
2022/12/31 19:13:41;;;;;;;1.25;0.90;;;;;;;;;;8200764;28;20034;-63
2022/12/31 19:17:41;;;;;;;1.23;1.02;;;;;;;;;;8202468;28;20481;-63
2022/12/31 19:21:42;;;;;;;1.65;1.05;;;;;;;;;;8201754;28;20057;-63
2022/12/31 19:25:43;;;;;;;2.28;1.08;;;;;;;;;;8200007;28;20806;-63
2022/12/31 19:29:43;;;;;;;1.73;1.25;;;;;;;;;;8202361;28;20415;-62
2022/12/31 19:33:43;;;;;;;1.77;1.10;;;;;;;;;;8200158;28;20535;-63
2022/12/31 19:37:44;;;;;;;1.17;1.08;;;;;;;;;;8201132;28;20034;-64
2022/12/31 19:41:45;;;;;;;2.83;1.35;;;;;;;;;;8202285;28;20096;-64
2022/12/31 19:45:45;;;;;;;1.00;0.90;;;;;;;;;;8201062;28;20355;-63
2022/12/31 19:49:45;;;;;;;1.85;1.00;;;;;;;;;;8200239;28;20031;-64
2022/12/31 19:53:47;;;;;;;1.25;1.00;;;;;;;;;;8199928;28;20026;-63
2022/12/31 19:57:47;;;;;;;0.90;0.90;;;;;;;;;;8200942;28;20116;-63
2022/12/31 20:01:47;;;;;;;1.20;1.10;;;;;;;;;;8208744;28;20687;-63
2022/12/31 20:05:48;;;;;;;4.00;1.00;;;;;;;;;;8207302;28;20034;-65
2022/12/31 20:09:49;;;;;;;4.35;1.10;;;;;;;;;;8201073;28;20220;-64
2022/12/31 20:13:51;;;;;;;1.30;1.20;;;;;;;;;;8199899;28;20120;-64
2022/12/31 20:17:51;;;;;;;1.13;1.00;;;;;;;;;;8199180;28;20043;-65
2022/12/31 20:21:52;;;;;;;1.58;1.15;;;;;;;;;;8200826;28;20085;-64
2022/12/31 20:25:58;;;;;;;2.58;0.90;;;;;;;;;;8200131;28;21143;-63
2022/12/31 20:29:59;;;;;;;1.10;1.00;;;;;;;;;;8201503;28;20026;-63
2022/12/31 20:33:59;;;;;;;1.58;1.30;;;;;;;;;;8199188;28;20045;-63
2022/12/31 20:37:59;;;;;;;1.30;1.15;;;;;;;;;;8199843;28;20030;-63
2022/12/31 20:42:00;;;;;;;1.13;1.02;;;;;;;;;;8199002;28;20046;-64
2022/12/31 20:46:08;;;;;;;1.90;1.30;;;;;;;;;;8198407;28;20064;-63
2022/12/31 20:50:08;;;;;;;3.90;1.20;;;;;;;;;;8199879;28;20611;-64
2022/12/31 20:54:09;;;;;;;4.18;1.10;;;;;;;;;;8199742;28;20037;-62
2022/12/31 20:58:09;;;;;;;1.92;0.98;;;;;;;;;;8201088;28;20076;-63
2022/12/31 21:02:13;;;;;;;2.50;1.38;;;;;;;;;;8199353;28;20554;-63
2022/12/31 21:06:14;;;;;;;2.45;1.17;;;;;;;;;;8198230;28;20026;-64
2022/12/31 21:10:15;;;;;;;1.45;1.05;;;;;;;;;;8200564;28;20529;-63
2022/12/31 21:14:16;;;;;;;2.85;1.70;;;;;;;;;;8198867;28;20320;-63
2022/12/31 21:18:16;;;;;;;6.13;2.53;;;;;;;;;;8197555;28;20611;-63
2022/12/31 21:22:16;;;;;;;3.90;1.30;;;;;;;;;;8199827;28;20019;-63
2022/12/31 21:26:17;;;;;;;1.27;1.13;;;;;;;;;;8199551;28;20109;-64
2022/12/31 21:30:17;;;;;;;3.13;1.30;;;;;;;;;;8198654;28;20034;-62
2022/12/31 21:34:17;;;;;;;2.20;1.38;;;;;;;;;;8198779;28;20026;-63
2022/12/31 21:38:17;;;;;;;1.13;1.00;;;;;;;;;;8206169;28;20038;-63
2022/12/31 21:42:18;;;;;;;2.38;1.33;;;;;;;;;;8199068;28;20610;-63
2022/12/31 21:46:18;;;;;;;1.90;1.20;;;;;;;;;;8197924;28;20454;-63
2022/12/31 21:50:18;;;;;;;4.85;1.30;;;;;;;;;;8197195;28;20320;-63
2022/12/31 21:56:07;;;;;;;2.17;1.20;;;;;;;;;;8198465;28;21038;-63
2022/12/31 21:58:39;;;;;;;2.90;1.40;;;;;;;;;;8200020;28;20030;-63
2022/12/31 22:06:58;;;;;;;2.42;1.55;;;;;;;;;;8199097;28;20041;-65
2022/12/31 22:10:59;;;;;;;1.73;1.40;;;;;;;;;;8198541;28;20034;-64
2022/12/31 22:14:59;;;;;;;2.85;1.60;;;;;;;;;;8200813;28;20026;-63
2022/12/31 22:18:59;;;;;;;2.38;1.30;;;;;;;;;;8205768;28;20069;-63
2022/12/31 22:22:59;;;;;;;2.73;1.37;;;;;;;;;;8202823;28;20031;-63
2022/12/31 22:26:59;;;;;;;4.00;1.20;;;;;;;;;;8205801;28;20765;-64
2022/12/31 22:31:00;;;;;;;2.25;1.23;;;;;;;;;;8201800;28;20034;-63
2022/12/31 22:35:00;;;;;;;2.17;1.30;;;;;;;;;;8208876;28;20027;-63
2022/12/31 22:39:00;;;;;;;2.28;1.30;;;;;;;;;;8204994;28;20022;-63
2022/12/31 22:43:00;;;;;;;2.72;1.40;;;;;;;;;;8202065;28;20041;-63
2022/12/31 22:47:00;;;;;;;1.52;1.40;;;;;;;;;;8202272;28;20510;-63
2022/12/31 22:51:00;;;;;;;3.88;1.50;;;;;;;;;;8203011;28;20926;-63
2022/12/31 22:55:01;;;;;;;1.90;1.40;;;;;;;;;;8203210;28;20179;-63
2022/12/31 22:59:01;;;;;;;3.05;1.42;;;;;;;;;;8204394;28;20081;-62
2022/12/31 23:03:01;;;;;;;26.55;13.15;;;;;;;;;;8201558;28;20137;-62
2022/12/31 23:07:01;;;;;;;52.78;25.83;;;;;;;;;;8204345;28;20030;-63
2022/12/31 23:11:07;;;;;;;72.90;41.10;;;;;;;;;;8226874;28;20031;-63
2022/12/31 23:23:51;;;;;;;46.28;25.17;;;;;;;;;;8224055;28;20033;-63
2022/12/31 23:27:51;;;;;;;54.00;29.20;;;;;;;;;;8224683;28;20035;-63
2022/12/31 23:31:52;;;;;;;16.45;7.95;;;;;;;;;;8227941;28;21026;-63
2022/12/31 23:36:05;;;;;;;17.58;11.13;;;;;;;;;;8228297;28;20027;-63
2022/12/31 23:40:05;;;;;;;10.05;4.03;;;;;;;;;;8229363;28;20030;-63
2022/12/31 23:44:06;;;;;;;8.32;5.32;;;;;;;;;;8225294;28;20039;-63
2022/12/31 23:48:08;;;;;;;18.65;8.27;;;;;;;;;;8224100;28;20092;-63
2022/12/31 23:52:09;;;;;;;14.25;8.23;;;;;;;;;;8226653;28;20053;-63
2022/12/31 23:56:12;;;;;;;17.30;10.55;;;;;;;;;;8228724;28;20026;-63
